Oliver, Canada
Current Conditions -  °F | °C
As of 5:00 PM on Monday 24 Nov 2014 (Local Time) from CYYF Reporting Station
Overcast Overcast  
Wind Chill: 32°   Ceiling: 18000
Heat Index: 41°   Visibility: 15mi
Dew Point: 28°   Wind: 18mph
Humidity: 61%   Direction: 170°S
Pressure: 30.1"   Gusts: NA
Location:  49.18°N, 119.55°W
Report Text: CYYF 250100Z 17016KT 15SM FEW050 SCT080 OVC180 05/M02 A3010 RMK SC1AC3AC4 SLP205
Loading
Personal Weather Stations






























Interactive Weather Map New forecast layout! Learn more

10-Day Weather Forecast

Advertisements
Track Severe Weather on mobile